Time;durP1;ratioP1;P1;durP2;ratioP2;P2;SDS_P1;SDS_P2;PMS_P1;PMS_P2;Temp;Humidity;BMP_temperature;BMP_pressure;BME280_temperature;BME280_humidity;BME280_pressure;Samples;Min_cycle;Max_cycle;Signal;HPM_P1;HPM_P2
2023/09/05 00:00:02;;;;;;;0.40;0.40;;;;;;;17.80;56.84;97351.84;29394;309;64013;-54
2023/09/05 00:00:34;;;;;;;0.40;0.40;;;;;;;17.81;57.17;97353.47;29395;210;63011;-56
2023/09/05 00:01:05;;;;;;;0.40;0.40;;;;;;;17.83;56.90;97351.19;29395;203;63009;-55
2023/09/05 00:01:36;;;;;;;0.40;0.40;;;;;;;17.83;57.33;97349.25;29395;261;63004;-69
2023/09/05 00:02:08;;;;;;;0.40;0.40;;;;;;;17.82;57.68;97355.87;29394;202;64013;-55
2023/09/05 00:02:41;;;;;;;0.40;0.40;;;;;;;17.84;56.95;97358.31;29395;300;63004;-54
2023/09/05 00:03:16;;;;;;;0.40;0.40;;;;;;;17.83;57.16;97352.00;29395;240;63009;-55
2023/09/05 00:03:47;;;;;;;0.40;0.40;;;;;;;17.83;57.15;97346.50;29395;251;63004;-55
2023/09/05 00:04:22;;;;;;;0.40;0.40;;;;;;;17.83;57.41;97351.19;29395;221;63008;-55
2023/09/05 00:04:55;;;;;;;0.30;0.30;;;;;;;17.83;57.69;97357.50;29395;270;63004;-54
2023/09/05 00:05:26;;;;;;;0.40;0.40;;;;;;;17.85;57.37;97347.00;29395;449;63009;-54
2023/09/05 00:06:04;;;;;;;0.40;0.40;;;;;;;17.84;56.92;97353.63;29395;211;63005;-54
2023/09/05 00:06:37;;;;;;;0.30;0.30;;;;;;;17.84;56.88;97348.13;29395;237;63009;-53
2023/09/05 00:07:09;;;;;;;0.40;0.40;;;;;;;17.82;56.86;97350.41;29394;222;64009;-56
2023/09/05 00:07:41;;;;;;;0.37;0.37;;;;;;;17.81;57.55;97354.28;29394;410;64013;-54
2023/09/05 00:08:12;;;;;;;0.40;0.40;;;;;;;17.81;57.44;97350.72;29395;212;63005;-69
2023/09/05 00:08:43;;;;;;;0.40;0.40;;;;;;;17.81;57.42;97347.97;29395;211;63009;-55
2023/09/05 00:09:18;;;;;;;0.30;0.30;;;;;;;17.81;57.66;97348.78;29395;358;63004;-54
2023/09/05 00:09:49;;;;;;;0.40;0.40;;;;;;;17.80;57.04;97344.44;29395;241;63013;-55
2023/09/05 00:10:21;;;;;;;0.40;0.40;;;;;;;17.80;55.80;97344.44;29395;228;63004;-54
2023/09/05 00:10:52;;;;;;;0.37;0.37;;;;;;;17.79;55.48;97334.56;29395;240;63009;-54
2023/09/05 00:11:26;;;;;;;0.30;0.30;;;;;;;17.79;55.97;97336.53;29395;354;63007;-55
2023/09/05 00:11:57;;;;;;;0.40;0.40;;;;;;;17.78;56.21;97335.72;29395;271;63018;-54
2023/09/05 00:12:29;;;;;;;0.40;0.40;;;;;;;17.80;56.55;97340.87;29395;272;63009;-54
2023/09/05 00:13:05;;;;;;;0.35;0.35;;;;;;;17.81;55.86;97339.75;29394;258;64014;-54
2023/09/05 00:13:37;;;;;;;0.30;0.30;;;;;;;17.82;55.96;97333.13;29395;229;63005;-56
2023/09/05 00:14:11;;;;;;;0.40;0.40;;;;;;;17.82;56.92;97333.94;29395;215;63008;-55
2023/09/05 00:14:42;;;;;;;0.40;0.40;;;;;;;17.81;54.60;97329.56;29395;200;63005;-55
2023/09/05 00:15:14;;;;;;;0.40;0.40;;;;;;;17.83;55.32;97337.47;29395;264;63009;-54
2023/09/05 00:15:46;;;;;;;0.40;0.40;;;;;;;17.81;55.65;97324.06;29395;243;63005;-54
2023/09/05 00:16:17;;;;;;;0.40;0.40;;;;;;;17.82;55.97;97331.19;29395;243;63009;-55
2023/09/05 00:16:48;;;;;;;0.40;0.40;;;;;;;17.80;56.10;97330.69;29394;210;64009;-55
2023/09/05 00:17:20;;;;;;;0.40;0.40;;;;;;;17.80;56.38;97330.69;29394;287;64013;-73
2023/09/05 00:17:51;;;;;;;0.40;0.40;;;;;;;17.80;57.10;97333.44;29395;197;63004;-54
2023/09/05 00:18:22;;;;;;;0.30;0.30;;;;;;;17.81;56.43;97326.00;29395;236;63009;-53
2023/09/05 00:18:54;;;;;;;0.32;0.32;;;;;;;17.81;55.54;97326.81;29395;237;63004;-53
2023/09/05 00:19:25;;;;;;;0.30;0.30;;;;;;;17.79;55.11;97320.03;29395;230;63008;-53
2023/09/05 00:19:56;;;;;;;0.40;0.40;;;;;;;17.79;55.57;97322.78;29395;218;63010;-53
2023/09/05 00:21:33;;;;;;;0.40;0.40;;;;;;;17.82;55.07;97322.12;88182;202;64004;-90
2023/09/05 00:22:11;;;;;;;0.40;0.40;;;;;;;17.81;55.90;97321.34;29394;357;64009;-92
2023/09/05 00:22:45;;;;;;;0.40;0.40;;;;;;;17.83;56.20;97323.75;29395;292;63005;-91
2023/09/05 00:23:27;;;;;;;0.30;0.30;;;;;;;17.87;55.05;97319.22;29395;419;63009;-92
2023/09/05 00:24:31;;;;;;;0.40;0.40;;;;;;;17.88;54.76;97307.91;29395;222;63005;-91
2023/09/05 00:25:04;;;;;;;0.40;0.40;;;;;;;17.89;55.78;97325.19;29395;247;63004;-88
2023/09/05 00:25:36;;;;;;;0.40;0.40;;;;;;;17.87;55.47;97314.53;29395;241;63015;-90
2023/09/05 00:26:10;;;;;;;0.40;0.40;;;;;;;17.86;55.40;97323.91;29394;241;64009;-88
2023/09/05 00:26:48;;;;;;;0.40;0.40;;;;;;;17.90;55.52;97319.38;29395;226;63016;-91
2023/09/05 00:27:28;;;;;;;0.40;0.40;;;;;;;17.91;55.19;97311.94;29395;222;63004;-92
2023/09/05 00:28:05;;;;;;;0.40;0.40;;;;;;;17.90;54.62;97307.56;29395;204;63009;-91
2023/09/05 00:28:43;;;;;;;0.40;0.40;;;;;;;17.87;55.28;97320.03;29395;243;63005;-92
2023/09/05 00:29:26;;;;;;;0.40;0.40;;;;;;;17.84;54.86;97315.19;29395;293;63009;-90
2023/09/05 00:30:12;;;;;;;;;;;;;;;;;;;;;
2023/09/05 00:31:14;;;;;;;0.40;0.40;;;;;;;17.79;55.33;97326.34;29400;204;63005;-90
2023/09/05 00:32:02;;;;;;;0.40;0.40;;;;;;;17.88;53.78;97305.16;29394;212;64013;-89
2023/09/05 00:33:05;;;;;;;0.30;0.30;;;;;;;17.88;54.31;97313.41;29394;214;64009;-91
2023/09/05 00:33:55;;;;;;;0.40;0.40;;;;;;;17.89;54.64;97312.25;29395;227;63009;-90
2023/09/05 00:34:51;;;;;;;0.40;0.40;;;;;;;17.88;53.37;97307.09;29395;239;63004;-90
2023/09/05 00:35:27;;;;;;;0.40;0.40;;;;;;;17.87;53.77;97313.72;29394;197;64014;-90
2023/09/05 00:36:11;;;;;;;0.40;0.40;;;;;;;17.87;54.03;97314.53;29395;233;63005;-90
2023/09/05 00:37:54;;;;;;;0.40;0.40;;;;;;;17.87;53.98;97306.28;29395;243;63005;-92
2023/09/05 00:38:51;;;;;;;0.40;0.40;;;;;;;17.83;54.43;97319.06;29395;202;63009;-90
2023/09/05 00:40:00;;;;;;;0.40;0.40;;;;;;;17.81;54.25;97318.59;29395;214;63004;-90
2023/09/05 00:41:02;;;;;;;0.40;0.40;;;;;;;17.75;54.09;97325.37;29394;212;64009;-91
2023/09/05 00:42:07;;;;;;;0.40;0.40;;;;;;;17.71;54.60;97322.50;29395;218;63009;-91
2023/09/05 00:42:51;;;;;;;0.40;0.40;;;;;;;17.71;54.75;97318.94;29417;236;63015;-92
2023/09/05 00:43:52;;;;;;;0.40;0.40;;;;;;;17.70;54.97;97326.37;29395;242;63009;-92
2023/09/05 00:44:33;;;;;;;0.40;0.40;;;;;;;17.69;54.92;97323.94;29394;202;64009;-90
2023/09/05 00:45:10;;;;;;;0.40;0.40;;;;;;;17.69;55.40;97323.94;29395;239;63009;-90
2023/09/05 00:46:10;;;;;;;0.40;0.40;;;;;;;17.67;55.46;97326.25;29395;210;63005;-90
2023/09/05 00:46:52;;;;;;;0.40;0.40;;;;;;;17.67;55.78;97331.72;29394;197;64013;-91
2023/09/05 00:47:45;;;;;;;;;;;;;;;;;;;;;
2023/09/05 00:48:53;;;;;;;0.40;0.40;;;;;;;17.66;56.69;97332.87;29395;242;63009;-91
2023/09/05 00:49:41;;;;;;;0.40;0.40;;;;;;;17.64;56.42;97333.16;29394;218;64009;-91
2023/09/05 00:50:22;;;;;;;0.40;0.40;;;;;;;17.64;56.13;97321.38;29394;203;64013;-90
2023/09/05 00:51:08;;;;;;;0.40;0.40;;;;;;;17.63;55.92;97325.25;29395;254;63005;-92
2023/09/05 00:51:52;;;;;;;0.40;0.40;;;;;;;17.60;55.83;97325.91;29395;225;63009;-90
2023/09/05 00:53:07;;;;;;;0.40;0.40;;;;;;;17.54;56.21;97327.22;29439;224;63005;-92
2023/09/05 00:53:47;;;;;;;0.40;0.40;;;;;;;17.52;56.68;97327.53;29373;276;63009;-91
2023/09/05 00:54:30;;;;;;;0.37;0.37;;;;;;;17.50;57.01;97331.75;29395;218;63005;-92
2023/09/05 00:55:06;;;;;;;0.40;0.40;;;;;;;17.43;55.99;97316.59;29395;239;63016;-92
2023/09/05 00:55:40;;;;;;;0.40;0.40;;;;;;;17.41;57.01;97329.00;29394;219;64009;-92
2023/09/05 00:56:20;;;;;;;0.40;0.40;;;;;;;17.38;57.41;97327.72;29395;221;63009;-90
2023/09/05 00:57:34;;;;;;;0.40;0.40;;;;;;;17.38;57.58;97340.63;29439;221;63004;-92
2023/09/05 00:58:38;;;;;;;0.40;0.40;;;;;;;17.38;57.01;97335.16;29416;213;64014;-92
2023/09/05 00:59:59;;;;;;;0.40;0.40;;;;;;;17.36;57.62;97342.88;29395;207;63000;-91
2023/09/05 01:01:39;;;;;;;;;;;;;;;;;;;;;
2023/09/05 01:02:59;;;;;;;0.40;0.40;;;;;;;17.32;58.51;97347.44;29395;207;63009;-91
2023/09/05 01:04:26;;;;;;;0.40;0.40;;;;;;;17.29;59.27;97359.06;29395;256;63009;-92
2023/09/05 01:05:06;;;;;;;0.40;0.40;;;;;;;17.26;58.74;97354.22;29395;234;63004;-90
2023/09/05 01:06:05;;;;;;;0.40;0.40;;;;;;;17.23;59.87;97358.41;29395;293;63009;-92
2023/09/05 01:07:16;;;;;;;0.40;0.40;;;;;;;17.13;60.09;97355.19;29394;214;64009;-92
2023/09/05 01:20:49;;;;;;;0.40;0.40;;;;;;;16.63;64.27;97366.59;29395;235;63005;-54
2023/09/05 01:21:40;;;;;;;0.40;0.40;;;;;;;16.59;64.60;97368.38;29394;289;64009;-54
2023/09/05 01:22:47;;;;;;;0.40;0.40;;;;;;;16.55;64.44;97357.25;29395;197;63004;-54
2023/09/05 01:34:57;;;;;;;0.43;0.43;;;;;;;16.26;65.81;97373.47;87885;172;204000;-69
2023/09/05 01:35:29;;;;;;;0.40;0.40;;;;;;;16.28;65.49;97379.41;29394;393;64009;-54
2023/09/05 01:36:00;;;;;;;0.40;0.40;;;;;;;16.26;65.45;97378.94;29395;199;63004;-54
2023/09/05 01:36:31;;;;;;;0.40;0.40;;;;;;;16.24;65.82;97372.97;29395;325;63009;-54
2023/09/05 01:37:03;;;;;;;0.40;0.40;;;;;;;16.24;66.51;97375.69;29395;214;63004;-53
2023/09/05 01:37:34;;;;;;;0.50;0.50;;;;;;;16.21;66.39;97376.34;29395;226;63009;-54
2023/09/05 01:38:07;;;;;;;0.50;0.50;;;;;;;16.19;65.81;97376.66;29395;237;63004;-53
2023/09/05 01:50:15;;;;;;;0.46;0.46;;;;;;;16.07;66.79;97358.09;88122;197;64019;-53
2023/09/05 01:50:46;;;;;;;0.40;0.40;;;;;;;16.08;66.75;97359.69;29394;275;64009;-54
2023/09/05 01:51:17;;;;;;;0.40;0.40;;;;;;;16.08;66.87;97354.22;29395;224;63004;-54
2023/09/05 01:51:49;;;;;;;0.40;0.40;;;;;;;16.08;66.94;97354.22;29395;244;63009;-54
2023/09/05 01:52:20;;;;;;;0.40;0.40;;;;;;;16.09;66.78;97349.56;29395;223;63004;-53
2023/09/05 01:52:51;;;;;;;0.40;0.40;;;;;;;16.09;67.44;97355.84;29395;242;63008;-54
2023/09/05 01:53:24;;;;;;;0.40;0.40;;;;;;;16.07;67.70;97352.59;29395;201;63005;-53
2023/09/05 02:05:34;;;;;;;0.50;0.50;;;;;;;15.77;69.76;97347.97;88122;204;64005;-54
2023/09/05 02:06:05;;;;;;;0.50;0.50;;;;;;;15.76;69.41;97351.84;29394;202;64009;-55
2023/09/05 02:06:36;;;;;;;0.40;0.40;;;;;;;15.76;69.64;97349.09;29395;293;63004;-54
2023/09/05 02:07:09;;;;;;;0.40;0.40;;;;;;;15.75;69.25;97344.75;29395;207;63009;-55
2023/09/05 02:07:40;;;;;;;0.40;0.40;;;;;;;15.73;68.90;97345.06;29395;206;63004;-54
2023/09/05 02:08:11;;;;;;;0.40;0.40;;;;;;;15.73;68.97;97349.72;29395;213;63009;-54
2023/09/05 02:08:43;;;;;;;0.40;0.40;;;;;;;15.73;68.82;97347.00;29395;220;63004;-53
2023/09/05 02:20:59;;;;;;;0.49;0.49;;;;;;;15.50;70.37;97337.19;88122;221;64005;-57
2023/09/05 02:21:32;;;;;;;0.50;0.50;;;;;;;15.50;69.74;97342.69;29394;259;64009;-55
2023/09/05 02:22:03;;;;;;;0.50;0.50;;;;;;;15.51;69.90;97344.28;29395;316;63004;-53
2023/09/05 02:22:35;;;;;;;0.40;0.40;;;;;;;15.53;69.48;97342.06;29395;286;63009;-54
2023/09/05 02:23:07;;;;;;;0.50;0.50;;;;;;;15.53;69.97;97331.09;29395;244;63004;-53
2023/09/05 02:23:38;;;;;;;0.40;0.40;;;;;;;15.54;70.08;97339.00;29395;219;63009;-53
2023/09/05 02:24:09;;;;;;;0.50;0.50;;;;;;;15.56;69.52;97333.22;29395;216;63004;-53
2023/09/05 02:36:58;;;;;;;0.50;0.50;;;;;;;15.68;70.75;97349.88;29395;244;63004;-54
2023/09/05 02:37:29;;;;;;;0.50;0.50;;;;;;;15.68;71.02;97352.59;29394;320;64008;-54
2023/09/05 02:38:01;;;;;;;0.50;0.50;;;;;;;15.67;71.89;97354.53;29395;205;63004;-53
2023/09/05 02:38:32;;;;;;;0.47;0.47;;;;;;;15.66;71.99;97354.84;29395;204;63008;-53
2023/09/05 02:39:03;;;;;;;0.50;0.50;;;;;;;15.65;71.37;97353.22;29395;257;63010;-54
2023/09/05 02:39:34;;;;;;;0.47;0.47;;;;;;;15.63;71.47;97358.19;29395;263;63021;-54
2023/09/05 02:41:22;;;;;;;0.50;0.50;;;;;;;15.57;71.00;97346.63;88159;206;64015;-54
2023/09/05 02:41:53;;;;;;;0.50;0.50;;;;;;;15.57;71.31;97348.53;29394;203;64009;-53
2023/09/05 02:42:25;;;;;;;0.40;0.40;;;;;;;15.57;70.79;97348.53;29395;223;63005;-53
2023/09/05 02:42:56;;;;;;;0.50;0.50;;;;;;;15.57;70.78;97352.09;29394;222;64013;-53
2023/09/05 02:43:29;;;;;;;0.50;0.50;;;;;;;15.57;70.65;97351.28;29395;219;63005;-67
2023/09/05 02:44:04;;;;;;;0.50;0.50;;;;;;;15.56;70.82;97353.19;29395;227;63009;-68
2023/09/05 02:44:35;;;;;;;0.45;0.45;;;;;;;15.56;70.97;97352.38;29395;205;63005;-52
2023/09/05 02:45:07;;;;;;;0.43;0.43;;;;;;;15.55;70.51;97357.03;29395;198;63009;-53
2023/09/05 02:45:38;;;;;;;0.50;0.50;;;;;;;15.55;70.41;97356.22;29395;203;63010;-53
2023/09/05 02:46:10;;;;;;;0.50;0.50;;;;;;;15.54;70.37;97354.59;29395;322;63018;-52
2023/09/05 02:46:41;;;;;;;0.50;0.50;;;;;;;15.52;70.89;97352.19;29395;209;63004;-53
2023/09/05 02:47:12;;;;;;;0.50;0.50;;;;;;;15.51;70.29;97356.03;29395;327;63009;-53
2023/09/05 02:47:43;;;;;;;0.50;0.50;;;;;;;15.53;70.40;97355.72;29395;287;63006;-53
2023/09/05 02:48:15;;;;;;;0.50;0.50;;;;;;;15.52;70.52;97357.66;29394;240;64014;-54
2023/09/05 02:48:47;;;;;;;0.50;0.50;;;;;;;15.53;70.25;97366.66;29395;203;63005;-53
2023/09/05 02:49:21;;;;;;;0.50;0.50;;;;;;;15.51;70.61;97356.03;29395;200;63009;-69
2023/09/05 02:49:53;;;;;;;0.40;0.40;;;;;;;15.51;70.37;97349.75;29395;216;63000;-69
2023/09/05 02:50:28;;;;;;;0.50;0.50;;;;;;;15.50;70.64;97365.34;29395;229;63009;-54
2023/09/05 02:51:04;;;;;;;0.40;0.40;;;;;;;15.49;70.65;97360.19;29395;211;63005;-54
2023/09/05 02:51:35;;;;;;;0.50;0.50;;;;;;;15.47;70.41;97363.25;29395;204;63009;-54
2023/09/05 02:52:06;;;;;;;0.50;0.50;;;;;;;15.43;70.69;97365.78;29395;204;63005;-54
2023/09/05 02:52:38;;;;;;;0.50;0.50;;;;;;;15.40;70.86;97360.94;29395;255;63009;-54
2023/09/05 02:53:09;;;;;;;0.40;0.40;;;;;;;15.38;70.48;97365.91;29395;227;63004;-54
2023/09/05 02:53:40;;;;;;;0.40;0.40;;;;;;;15.35;70.70;97355.59;29394;219;64013;-54
2023/09/05 02:54:12;;;;;;;0.50;0.50;;;;;;;15.34;70.49;97362.19;29395;198;63011;-54
2023/09/05 02:54:43;;;;;;;0.40;0.40;;;;;;;15.35;70.82;97366.53;29395;213;64009;-69
2023/09/05 02:56:23;;;;;;;0.46;0.46;;;;;;;15.32;70.52;97360.88;88174;226;64005;-53
2023/09/05 02:56:55;;;;;;;0.40;0.40;;;;;;;15.32;70.58;97366.34;29394;226;64009;-54
2023/09/05 02:57:26;;;;;;;0.40;0.40;;;;;;;15.33;71.45;97362.50;29395;267;63014;-54
2023/09/05 02:57:58;;;;;;;0.40;0.40;;;;;;;15.34;71.14;97367.66;29395;223;63009;-53
2023/09/05 02:58:30;;;;;;;0.47;0.47;;;;;;;15.34;71.17;97367.66;29395;284;63005;-54
2023/09/05 02:59:01;;;;;;;0.47;0.47;;;;;;;15.36;70.87;97361.88;29394;281;64013;-54
2023/09/05 02:59:33;;;;;;;0.40;0.40;;;;;;;15.33;70.64;97362.50;29395;205;63005;-54
2023/09/05 03:00:06;;;;;;;0.40;0.40;;;;;;;15.31;71.65;97362.00;29395;210;63009;-54
2023/09/05 03:00:38;;;;;;;0.50;0.50;;;;;;;15.26;71.18;97368.41;29395;291;63017;-53
2023/09/05 03:01:12;;;;;;;0.40;0.40;;;;;;;15.25;70.93;97368.72;29395;228;63009;-54
2023/09/05 03:01:43;;;;;;;0.40;0.40;;;;;;;15.25;71.55;97371.44;29395;197;63004;-55
2023/09/05 03:02:14;;;;;;;0.50;0.50;;;;;;;15.23;71.38;97369.06;29395;271;63009;-54
2023/09/05 03:02:49;;;;;;;0.50;0.50;;;;;;;15.22;70.88;97367.44;29395;212;63004;-54
2023/09/05 03:03:20;;;;;;;0.50;0.50;;;;;;;15.23;71.20;97369.06;29395;300;63008;-53
2023/09/05 03:03:51;;;;;;;0.40;0.40;;;;;;;15.26;71.33;97367.59;29395;239;63009;-54
2023/09/05 03:04:23;;;;;;;0.40;0.40;;;;;;;15.24;71.40;97370.66;29394;221;64014;-54
2023/09/05 03:04:55;;;;;;;0.40;0.40;;;;;;;15.25;70.92;97368.72;29395;243;63005;-54
2023/09/05 03:05:26;;;;;;;0.50;0.50;;;;;;;15.25;71.00;97372.25;29395;237;63009;-54
2023/09/05 03:06:07;;;;;;;0.40;0.40;;;;;;;15.24;71.50;97367.94;29395;231;63005;-54
2023/09/05 03:06:41;;;;;;;0.40;0.40;;;;;;;15.22;71.03;97364.69;29417;208;63009;-54
2023/09/05 03:07:12;;;;;;;0.40;0.40;;;;;;;15.20;71.30;97366.94;29395;197;63005;-54
2023/09/05 03:07:45;;;;;;;0.50;0.50;;;;;;;15.18;71.46;97366.44;29395;211;63009;-54
2023/09/05 03:08:16;;;;;;;0.40;0.40;;;;;;;15.20;70.99;97368.88;29395;236;63014;-54
2023/09/05 03:08:47;;;;;;;0.50;0.50;;;;;;;15.19;71.42;97365.31;29395;197;63009;-54
2023/09/05 03:09:18;;;;;;;0.50;0.50;;;;;;;15.20;71.15;97375.12;29395;198;63000;-54
2023/09/05 03:09:51;;;;;;;0.50;0.50;;;;;;;15.18;71.57;97365.63;29394;224;64013;-54
2023/09/05 03:11:27;;;;;;;0.50;0.50;;;;;;;15.17;71.83;97372.22;88180;204;64005;-92
2023/09/05 03:12:00;;;;;;;0.47;0.47;;;;;;;15.14;72.33;97373.66;29394;233;64008;-92
2023/09/05 03:12:36;;;;;;;0.50;0.50;;;;;;;15.11;72.71;97373.44;29395;208;63005;-91
2023/09/05 03:13:07;;;;;;;0.50;0.50;;;;;;;15.04;72.64;97369.22;29395;239;63009;-91
2023/09/05 03:13:39;;;;;;;0.50;0.50;;;;;;;15.04;72.31;97373.88;29395;216;63005;-91
2023/09/05 03:14:10;;;;;;;0.45;0.45;;;;;;;15.05;72.65;97370.84;29395;232;63008;-89
2023/09/05 03:14:43;;;;;;;0.43;0.43;;;;;;;15.05;72.85;97380.97;29395;385;63005;-90
2023/09/05 03:15:20;;;;;;;0.40;0.40;;;;;;;15.05;72.93;97376.31;29394;206;64013;-92
2023/09/05 03:16:34;;;;;;;0.50;0.50;;;;;;;15.03;72.98;97377.72;29395;202;63000;-89
2023/09/05 03:17:34;;;;;;;0.50;0.50;;;;;;;15.00;73.54;97372.88;29395;201;63009;-54
2023/09/05 03:18:06;;;;;;;0.50;0.50;;;;;;;14.97;73.10;97373.50;29395;213;63009;-54
2023/09/05 03:18:37;;;;;;;0.50;0.50;;;;;;;14.96;73.13;97371.87;29395;213;63004;-54
2023/09/05 03:19:11;;;;;;;0.50;0.50;;;;;;;14.96;73.08;97371.87;29395;239;63009;-53
2023/09/05 03:19:43;;;;;;;0.40;0.40;;;;;;;14.95;73.61;97375.72;29395;285;63004;-54
2023/09/05 03:20:15;;;;;;;0.50;0.50;;;;;;;14.93;73.42;97376.03;29394;219;64014;-55
2023/09/05 03:20:47;;;;;;;0.50;0.50;;;;;;;14.94;73.58;97368.66;29395;213;63005;-54
2023/09/05 03:21:19;;;;;;;0.50;0.50;;;;;;;14.94;73.49;97371.37;29395;213;63009;-55
2023/09/05 03:21:51;;;;;;;0.40;0.40;;;;;;;14.94;73.39;97371.37;29394;213;64009;-54
2023/09/05 03:22:22;;;;;;;0.50;0.50;;;;;;;14.94;73.39;97374.09;29394;212;64013;-54
2023/09/05 03:22:53;;;;;;;0.40;0.40;;;;;;;14.94;73.07;97372.19;29395;223;63005;-71
2023/09/05 03:23:27;;;;;;;0.45;0.45;;;;;;;14.96;73.34;97371.87;29395;231;63009;-70
2023/09/05 03:24:00;;;;;;;0.50;0.50;;;;;;;14.96;73.28;97369.16;29395;222;63005;-54
2023/09/05 03:24:32;;;;;;;0.40;0.40;;;;;;;14.98;73.71;97369.66;29395;224;63009;-55
2023/09/05 03:25:05;;;;;;;0.50;0.50;;;;;;;14.98;73.23;97369.66;29395;197;63004;-69
2023/09/05 03:26:50;;;;;;;0.40;0.40;;;;;;;14.99;74.19;97371.25;88180;219;64004;-90
2023/09/05 03:27:27;;;;;;;0.43;0.43;;;;;;;14.98;75.46;97366.91;29394;199;64009;-91
2023/09/05 03:27:58;;;;;;;0.40;0.40;;;;;;;14.96;75.57;97364.50;29395;224;63005;-90
2023/09/05 03:28:46;;;;;;;0.40;0.40;;;;;;;14.94;75.31;97368.66;29395;218;63009;-91
2023/09/05 03:29:27;;;;;;;0.40;0.40;;;;;;;14.95;75.07;97360.12;29395;302;63005;-91
2023/09/05 03:30:01;;;;;;;0.40;0.40;;;;;;;14.97;74.78;97365.28;29417;323;63009;-92
2023/09/05 03:31:12;;;;;;;0.50;0.50;;;;;;;15.00;74.92;97367.41;29395;226;63004;-90
2023/09/05 03:31:51;;;;;;;0.50;0.50;;;;;;;15.02;74.50;97367.91;29395;231;63009;-92
2023/09/05 03:32:27;;;;;;;0.50;0.50;;;;;;;15.04;74.42;97373.88;29394;229;64008;-92
2023/09/05 03:32:59;;;;;;;0.50;0.50;;;;;;;15.05;74.52;97372.75;29395;211;63009;-90
2023/09/05 03:33:32;;;;;;;0.50;0.50;;;;;;;15.05;74.30;97367.28;29395;202;63005;-91
2023/09/05 03:34:05;;;;;;;0.40;0.40;;;;;;;15.06;74.33;97366.19;29394;204;64014;-91
2023/09/05 03:34:52;;;;;;;0.50;0.50;;;;;;;15.05;74.14;97378.22;29395;281;63005;-92
2023/09/05 03:35:38;;;;;;;0.50;0.50;;;;;;;15.03;74.18;97373.06;29395;251;63009;-89
2023/09/05 03:36:12;;;;;;;0.47;0.47;;;;;;;15.04;74.22;97369.22;29395;293;63005;-92
2023/09/05 03:36:49;;;;;;;0.40;0.40;;;;;;;15.05;74.40;97370.03;29395;198;63009;-91
2023/09/05 03:37:48;;;;;;;0.50;0.50;;;;;;;15.05;74.34;97375.50;29395;204;63004;-93
2023/09/05 03:38:33;;;;;;;0.50;0.50;;;;;;;15.03;74.41;97364.06;29395;213;63009;-91
2023/09/05 03:39:09;;;;;;;0.50;0.50;;;;;;;15.03;74.30;97372.25;29394;202;64009;-91
2023/09/05 03:40:59;;;;;;;;;;;;;;;;;;;;;
2023/09/05 03:43:49;;;;;;;0.50;0.50;;;;;;;14.95;75.05;97360.12;29395;203;63005;-91
2023/09/05 03:44:20;;;;;;;0.50;0.50;;;;;;;14.94;74.92;97358.53;29394;368;64013;-90
2023/09/05 03:44:56;;;;;;;0.50;0.50;;;;;;;14.92;74.79;97362.69;29395;215;63004;-89
2023/09/05 03:45:38;;;;;;;0.50;0.50;;;;;;;14.92;74.93;97359.94;29394;220;64013;-91
2023/09/05 03:46:13;;;;;;;0.50;0.50;;;;;;;14.90;75.29;97356.75;29395;214;63004;-92
2023/09/05 03:46:47;;;;;;;0.40;0.40;;;;;;;14.88;75.65;97364.44;29395;198;63009;-90
2023/09/05 03:47:21;;;;;;;0.50;0.50;;;;;;;14.86;75.65;97359.28;29395;226;63004;-90
2023/09/05 03:48:21;;;;;;;0.50;0.50;;;;;;;14.81;75.29;97359.41;29395;295;63005;-93
2023/09/05 03:48:57;;;;;;;0.50;0.50;;;;;;;14.85;75.72;97354.13;29395;333;63009;-89
2023/09/05 03:49:30;;;;;;;0.50;0.50;;;;;;;14.83;75.63;97357.16;29394;199;64014;-92
2023/09/05 03:50:06;;;;;;;0.40;0.40;;;;;;;14.82;75.54;97354.75;29395;234;63005;-92
2023/09/05 03:53:34;;;;;;;;;;;;;;;;;;;;;
2023/09/05 03:55:24;;;;;;;0.50;0.50;;;;;;;14.74;76.92;97348.87;29395;212;63004;-91
2023/09/05 03:56:01;;;;;;;0.50;0.50;;;;;;;14.75;77.26;97355.97;29394;213;64014;-90
2023/09/05 03:57:04;;;;;;;0.50;0.50;;;;;;;14.75;77.47;97355.97;29395;312;63005;-92
2023/09/05 03:58:32;;;;;;;0.50;0.50;;;;;;;14.76;77.82;97351.31;29395;198;63009;-91
2023/09/05 03:59:26;;;;;;;0.50;0.50;;;;;;;14.76;78.23;97351.31;29394;231;64009;-92
2023/09/05 04:00:46;;;;;;;0.50;0.50;;;;;;;14.79;77.97;97352.62;29395;266;63009;-91
2023/09/05 04:02:18;;;;;;;0.50;0.50;;;;;;;14.77;77.82;97346.66;29394;198;64008;-91
2023/09/05 04:03:39;;;;;;;0.50;0.50;;;;;;;14.78;77.86;97351.81;29395;247;63009;-92
2023/09/05 04:04:36;;;;;;;0.47;0.47;;;;;;;14.79;77.89;97347.16;29394;318;64009;-90
2023/09/05 04:05:32;;;;;;;0.50;0.50;;;;;;;14.81;77.96;97347.66;29394;205;64013;-91
2023/09/05 04:06:40;;;;;;;0.47;0.47;;;;;;;14.82;77.79;97339.16;29395;217;63005;-90
2023/09/05 04:07:43;;;;;;;0.50;0.50;;;;;;;14.84;78.06;97352.50;29395;202;63009;-90
2023/09/05 04:08:38;;;;;;;0.50;0.50;;;;;;;14.85;77.78;97351.41;29395;257;63004;-92
2023/09/05 04:09:40;;;;;;;0.50;0.50;;;;;;;14.87;77.76;97352.69;29395;199;63008;-93
2023/09/05 04:10:59;;;;;;;0.50;0.50;;;;;;;14.91;77.61;97352.88;29394;230;64009;-91
2023/09/05 04:12:16;;;;;;;0.50;0.50;;;;;;;14.94;77.13;97357.72;29395;295;63009;-93
2023/09/05 04:12:53;;;;;;;0.50;0.50;;;;;;;14.94;77.28;97358.53;29394;197;64009;-91
2023/09/05 04:14:07;;;;;;;0.50;0.50;;;;;;;14.94;77.41;97357.72;29395;236;63009;-90
2023/09/05 04:15:23;;;;;;;0.50;0.50;;;;;;;14.92;77.48;97354.47;29395;322;63004;-93
2023/09/05 04:16:29;;;;;;;0.50;0.50;;;;;;;14.93;77.62;97356.09;29394;291;64013;-92
2023/09/05 04:18:08;;;;;;;;;;;;;;;;;;;;;
2023/09/05 04:19:47;;;;;;;;;;;;;;;;;;;;;
2023/09/05 04:20:55;;;;;;;0.50;0.50;;;;;;;14.92;77.54;97354.47;29395;234;63009;-54
2023/09/05 04:21:26;;;;;;;0.50;0.50;;;;;;;14.93;77.65;97358.84;29395;294;63009;-53
2023/09/05 04:21:58;;;;;;;0.50;0.50;;;;;;;14.92;77.62;97355.28;29395;242;63004;-69
2023/09/05 04:22:29;;;;;;;0.50;0.50;;;;;;;14.93;77.31;97358.84;29395;298;63004;-68
2023/09/05 04:23:00;;;;;;;0.50;0.50;;;;;;;14.92;77.46;97355.28;29395;215;63004;-67
2023/09/05 04:23:32;;;;;;;0.40;0.40;;;;;;;14.91;77.24;97352.88;29394;216;64013;-67
2023/09/05 04:24:04;;;;;;;0.50;0.50;;;;;;;14.90;77.64;97352.06;29395;215;63004;-54
2023/09/05 04:24:35;;;;;;;0.47;0.47;;;;;;;14.90;78.34;97362.22;29395;213;63008;-53
2023/09/05 04:25:08;;;;;;;0.50;0.50;;;;;;;14.87;77.96;97360.09;29395;283;63005;-68
2023/09/05 04:25:42;;;;;;;0.50;0.50;;;;;;;14.85;77.55;97359.59;29394;240;64014;-53
2023/09/05 04:26:14;;;;;;;0.50;0.50;;;;;;;14.84;76.96;97358.78;29395;214;63005;-53
2023/09/05 04:26:46;;;;;;;0.40;0.40;;;;;;;14.84;76.87;97355.25;29395;233;63009;-68
2023/09/05 04:27:17;;;;;;;0.50;0.50;;;;;;;14.85;76.40;97354.13;29395;213;63005;-54
2023/09/05 04:27:50;;;;;;;0.50;0.50;;;;;;;14.86;76.14;97361.22;29395;276;63016;-54
2023/09/05 04:28:22;;;;;;;0.50;0.50;;;;;;;14.87;75.71;97355.44;29394;316;64009;-53
2023/09/05 04:28:53;;;;;;;0.40;0.40;;;;;;;14.89;75.67;97353.19;29395;223;63009;-52
2023/09/05 04:29:28;;;;;;;0.47;0.47;;;;;;;14.91;75.60;97352.88;29395;264;63004;-54
2023/09/05 04:30:00;;;;;;;0.50;0.50;;;;;;;14.92;75.67;97355.28;29395;215;63006;-68
2023/09/05 04:30:35;;;;;;;0.50;0.50;;;;;;;14.94;75.58;97349.53;29395;306;63004;-67
2023/09/05 04:31:06;;;;;;;0.50;0.50;;;;;;;14.96;75.92;97352.75;29395;219;63009;-68
2023/09/05 04:31:38;;;;;;;0.40;0.40;;;;;;;14.96;75.66;97350.03;29395;220;63004;-53
2023/09/05 04:32:09;;;;;;;0.50;0.50;;;;;;;14.98;75.69;97347.78;29395;220;63008;-53
2023/09/05 04:32:42;;;;;;;0.40;0.40;;;;;;;14.98;75.43;97347.78;29395;267;63005;-53
2023/09/05 04:33:14;;;;;;;0.47;0.47;;;;;;;14.99;76.32;97358.41;29395;204;63009;-53
2023/09/05 04:33:46;;;;;;;0.50;0.50;;;;;;;14.99;75.62;97343.94;29394;294;64009;-53
2023/09/05 04:34:17;;;;;;;0.40;0.40;;;;;;;15.00;75.57;97342.81;29395;269;63024;-54
2023/09/05 04:34:51;;;;;;;0.50;0.50;;;;;;;15.02;75.29;97343.31;29395;197;63005;-53
2023/09/05 04:35:22;;;;;;;0.45;0.45;;;;;;;15.03;75.20;97344.94;29395;225;63009;-53
2023/09/05 04:35:54;;;;;;;0.40;0.40;;;;;;;15.05;75.19;97345.44;29395;226;63012;-54
2023/09/05 04:36:26;;;;;;;0.50;0.50;;;;;;;15.08;74.44;97348.34;29395;273;63009;-69
2023/09/05 04:36:57;;;;;;;0.50;0.50;;;;;;;15.12;74.05;97337.62;29395;233;63004;-53
2023/09/05 04:37:29;;;;;;;0.40;0.40;;;;;;;15.14;74.38;97340.84;29395;204;63009;-53